Time;durP1;ratioP1;P1;durP2;ratioP2;P2;SDS_P1;SDS_P2;PMS_P1;PMS_P2;Temp;Humidity;BMP_temperature;BMP_pressure;BME280_temperature;BME280_humidity;BME280_pressure;Samples;Min_cycle;Max_cycle;Signal;HPM_P1;HPM_P2
2020/12/16 00:03:18;;;;;;;47.58;11.98;;;5.80;99.90;;;;;;6729476;88;20185;-74
2020/12/16 00:13:19;;;;;;;82.03;12.65;;;5.80;99.90;;;;;;6729946;88;20184;-74
2020/12/16 00:23:19;;;;;;;56.78;11.43;;;6.00;99.90;;;;;;6733401;88;20177;-74
2020/12/16 00:33:20;;;;;;;79.50;11.23;;;6.00;99.90;;;;;;6729557;88;20189;-73
2020/12/16 00:43:21;;;;;;;56.08;10.05;;;5.90;99.90;;;;;;6733632;88;20223;-73
2020/12/16 00:53:21;;;;;;;28.75;9.35;;;5.80;99.90;;;;;;6736730;88;20201;-74
2020/12/16 01:03:22;;;;;;;15.98;8.05;;;5.70;99.90;;;;;;6740993;88;20310;-74
2020/12/16 01:13:22;;;;;;;18.83;9.05;;;5.70;99.90;;;;;;6747276;77;20226;-74
2020/12/16 01:23:23;;;;;;;22.08;9.82;;;5.80;99.90;;;;;;6733808;88;20199;-74
2020/12/16 01:33:24;;;;;;;21.67;11.05;;;5.80;99.90;;;;;;6722881;88;20632;-74
2020/12/16 01:43:24;;;;;;;22.58;10.80;;;5.90;99.90;;;;;;6724147;88;20197;-75
2020/12/16 01:53:28;;;;;;;23.08;11.18;;;6.00;99.90;;;;;;6731331;88;20201;-75
2020/12/16 02:03:29;;;;;;;19.25;10.35;;;6.10;99.90;;;;;;6730427;88;20182;-75
2020/12/16 02:13:30;;;;;;;19.35;10.23;;;6.30;99.90;;;;;;6729558;88;20695;-75
2020/12/16 02:23:32;;;;;;;18.05;9.73;;;6.50;99.90;;;;;;6725170;88;20182;-76
2020/12/16 02:33:33;;;;;;;16.45;9.00;;;6.50;99.90;;;;;;6724796;88;20288;-74
2020/12/16 02:43:34;;;;;;;15.85;8.80;;;6.60;99.90;;;;;;6724064;88;20235;-74
2020/12/16 02:53:34;;;;;;;13.73;8.32;;;6.80;99.90;;;;;;6720856;88;20226;-74
2020/12/16 03:03:35;;;;;;;15.60;8.23;;;6.90;99.90;;;;;;6722296;88;20196;-74
2020/12/16 03:13:35;;;;;;;15.15;8.00;;;7.10;99.90;;;;;;6728110;88;20505;-74
2020/12/16 03:23:36;;;;;;;14.40;8.30;;;7.10;99.90;;;;;;6723273;88;20638;-74
2020/12/16 03:33:39;;;;;;;17.08;8.48;;;7.10;99.90;;;;;;6720439;88;20805;-74
2020/12/16 03:43:40;;;;;;;17.08;8.23;;;7.10;99.90;;;;;;6719632;88;20210;-74
2020/12/16 03:53:41;;;;;;;16.20;8.90;;;7.10;99.90;;;;;;6725246;88;20700;-74
2020/12/16 04:03:42;;;;;;;18.73;9.25;;;7.10;99.90;;;;;;6728451;88;20190;-74
2020/12/16 04:13:43;;;;;;;19.33;9.70;;;7.10;99.90;;;;;;6724636;88;20217;-74
2020/12/16 04:23:43;;;;;;;19.20;10.25;;;7.00;99.90;;;;;;6726078;88;20189;-74
2020/12/16 04:33:45;;;;;;;24.17;10.75;;;6.90;99.90;;;;;;6727356;88;20665;-74
2020/12/16 04:43:48;;;;;;;19.12;9.80;;;7.00;99.90;;;;;;6722595;88;20727;-74
2020/12/16 04:53:48;;;;;;;21.20;10.57;;;7.00;99.90;;;;;;6738018;88;20321;-73
2020/12/16 05:03:49;;;;;;;24.50;10.35;;;6.90;99.90;;;;;;6742884;88;20188;-74
2020/12/16 05:14:07;;;;;;;20.25;10.70;;;6.80;99.90;;;;;;6738969;87;20343;-73
2020/12/16 05:24:11;;;;;;;24.37;10.95;;;6.80;99.90;;;;;;6743635;88;20232;-73
2020/12/16 05:34:12;;;;;;;26.05;11.20;;;6.80;99.90;;;;;;6734051;88;20631;-74
2020/12/16 05:44:17;;;;;;;29.87;13.88;;;6.80;99.90;;;;;;6732241;88;20180;-73
2020/12/16 05:54:17;;;;;;;29.98;14.63;;;6.80;99.90;;;;;;6738703;88;20311;-74
2020/12/16 06:04:19;;;;;;;32.22;14.55;;;7.00;99.90;;;;;;6741684;88;20228;-73
2020/12/16 06:14:21;;;;;;;30.35;13.85;;;6.90;99.90;;;;;;6738277;88;20784;-74
2020/12/16 06:24:28;;;;;;;30.52;13.45;;;6.90;99.90;;;;;;6737668;88;20184;-75
2020/12/16 06:34:29;;;;;;;28.70;14.40;;;7.00;99.90;;;;;;6738465;88;20177;-74
2020/12/16 06:44:30;;;;;;;25.10;12.48;;;7.00;99.90;;;;;;6737935;88;20733;-74
2020/12/16 06:54:52;;;;;;;25.98;12.90;;;7.10;99.90;;;;;;6743217;88;20220;-74
2020/12/16 07:04:54;;;;;;;23.12;12.32;;;7.20;99.90;;;;;;6738069;88;20166;-75
2020/12/16 07:14:54;;;;;;;24.55;11.85;;;7.20;99.90;;;;;;6735506;88;20190;-74
2020/12/16 07:24:55;;;;;;;22.40;11.30;;;7.20;99.90;;;;;;6738481;88;20210;-74
2020/12/16 07:34:58;;;;;;;21.35;11.65;;;7.10;99.90;;;;;;6735452;88;20206;-74
2020/12/16 07:45:02;;;;;;;23.98;12.27;;;7.00;99.90;;;;;;6738477;88;20169;-74
2020/12/16 07:55:02;;;;;;;20.33;11.02;;;7.20;99.90;;;;;;6735189;88;20184;-75
2020/12/16 08:05:05;;;;;;;19.87;10.63;;;7.30;99.90;;;;;;6736611;88;20776;-75
2020/12/16 08:15:19;;;;;;;19.02;9.98;;;7.30;99.90;;;;;;6733863;88;20900;-76
2020/12/16 08:25:21;;;;;;;17.87;9.48;;;7.50;99.90;;;;;;6731409;88;20200;-75
2020/12/16 08:35:27;;;;;;;18.17;9.63;;;7.70;99.90;;;;;;6728180;88;20181;-75
2020/12/16 08:45:28;;;;;;;17.37;9.37;;;7.90;99.90;;;;;;6731975;88;20209;-74
2020/12/16 08:55:35;;;;;;;15.65;8.82;;;8.20;99.90;;;;;;6732480;88;20178;-74
2020/12/16 09:05:38;;;;;;;16.08;9.07;;;8.50;99.90;;;;;;6740614;88;20201;-75
2020/12/16 09:15:39;;;;;;;16.62;9.23;;;8.80;99.90;;;;;;6738865;88;20196;-75
2020/12/16 09:25:49;;;;;;;16.67;9.05;;;8.80;99.90;;;;;;6740028;88;20228;-75
2020/12/16 09:35:53;;;;;;;14.93;8.90;;;8.90;99.90;;;;;;6735550;88;20350;-75
2020/12/16 09:45:53;;;;;;;15.20;8.48;;;9.00;99.90;;;;;;6740003;88;20210;-75
2020/12/16 09:55:54;;;;;;;14.52;7.97;;;9.00;99.90;;;;;;6738967;88;20727;-75
2020/12/16 10:05:54;;;;;;;13.10;6.68;;;9.10;99.90;;;;;;6738703;88;20202;-75
2020/12/16 10:15:55;;;;;;;9.18;5.97;;;9.40;99.90;;;;;;6737094;88;20218;-76
2020/12/16 10:25:55;;;;;;;10.48;6.28;;;9.80;99.90;;;;;;6743802;88;20201;-77
2020/12/16 10:35:56;;;;;;;9.13;5.90;;;9.80;99.90;;;;;;6749320;88;20189;-74
2020/12/16 10:45:57;;;;;;;11.95;6.10;;;10.10;99.90;;;;;;6741538;88;20216;-75
2020/12/16 10:55:58;;;;;;;10.52;5.28;;;10.60;99.90;;;;;;6735000;88;20295;-75
2020/12/16 11:05:59;;;;;;;8.93;5.47;;;10.80;99.90;;;;;;6732973;88;20217;-75
2020/12/16 11:16:40;;;;;;;11.07;5.60;;;10.60;99.90;;;;;;6749224;77;20295;-78
2020/12/16 11:26:44;;;;;;;7.87;5.37;;;10.70;99.90;;;;;;6713558;88;20208;-78
2020/12/16 11:36:47;;;;;;;8.18;5.70;;;10.60;99.90;;;;;;6707149;88;20211;-78
2020/12/16 11:46:49;;;;;;;9.40;5.95;;;10.70;99.90;;;;;;6708931;88;20190;-79
2020/12/16 11:56:49;;;;;;;7.32;5.00;;;10.80;99.90;;;;;;6710819;88;20209;-77
2020/12/16 12:06:51;;;;;;;7.72;5.15;;;10.90;99.90;;;;;;6699112;88;20174;-77
2020/12/16 12:16:52;;;;;;;8.85;5.45;;;11.10;99.90;;;;;;6708086;88;20250;-78
2020/12/16 12:26:53;;;;;;;12.50;6.18;;;11.30;99.90;;;;;;6705053;88;20229;-78
2020/12/16 12:36:54;;;;;;;9.85;5.20;;;11.50;99.90;;;;;;6710181;88;20190;-77
2020/12/16 12:46:54;;;;;;;8.15;5.47;;;12.00;99.90;;;;;;6707401;88;20193;-79
2020/12/16 12:56:55;;;;;;;8.73;6.00;;;12.10;99.90;;;;;;6687548;88;20229;-78
2020/12/16 13:06:56;;;;;;;8.30;5.50;;;11.80;99.90;;;;;;6709356;88;20218;-79
2020/12/16 13:16:57;;;;;;;8.05;5.47;;;11.60;99.90;;;;;;6713166;88;20836;-79
2020/12/16 13:26:57;;;;;;;9.07;5.18;;;11.50;99.90;;;;;;6719979;88;20181;-78
2020/12/16 13:36:58;;;;;;;9.20;5.20;;;11.50;99.90;;;;;;6708511;88;20178;-77
2020/12/16 13:46:58;;;;;;;8.45;5.20;;;11.40;99.90;;;;;;6704460;88;20277;-77
2020/12/16 13:56:59;;;;;;;7.75;5.10;;;11.40;99.90;;;;;;6698527;88;20624;-76
2020/12/16 14:06:59;;;;;;;9.18;5.60;;;11.40;99.90;;;;;;6693592;88;20790;-77
2020/12/16 14:17:01;;;;;;;9.52;5.32;;;11.40;99.90;;;;;;6706575;88;20257;-77
2020/12/16 14:27:02;;;;;;;8.23;4.93;;;11.40;99.90;;;;;;6693013;88;20183;-77
2020/12/16 14:37:03;;;;;;;10.90;5.22;;;11.40;99.90;;;;;;6699720;88;20219;-76
2020/12/16 14:47:05;;;;;;;9.13;4.95;;;11.20;99.90;;;;;;6697879;88;20204;-77
2020/12/16 14:57:05;;;;;;;7.57;4.72;;;11.00;99.90;;;;;;6683910;88;20182;-76
2020/12/16 15:07:06;;;;;;;7.78;4.75;;;10.80;99.90;;;;;;6697201;88;20284;-77
2020/12/16 15:17:07;;;;;;;8.88;5.37;;;10.70;99.90;;;;;;6705479;88;20191;-76
2020/12/16 15:27:08;;;;;;;9.45;5.40;;;10.50;99.90;;;;;;6695437;88;20206;-75
2020/12/16 15:37:11;;;;;;;12.23;5.82;;;10.30;99.90;;;;;;6695846;88;20690;-76
2020/12/16 15:47:11;;;;;;;10.13;5.93;;;10.10;99.90;;;;;;6693335;88;20735;-76
2020/12/16 15:57:12;;;;;;;12.50;6.43;;;9.90;99.90;;;;;;6704073;88;20183;-76
2020/12/16 16:07:12;;;;;;;11.60;6.60;;;9.70;99.90;;;;;;6697146;88;20211;-76
2020/12/16 16:17:13;;;;;;;12.80;6.43;;;9.60;99.90;;;;;;6695103;88;20752;-76
2020/12/16 16:27:15;;;;;;;12.07;6.95;;;9.60;99.90;;;;;;6692123;88;20362;-77
2020/12/16 16:37:15;;;;;;;11.90;6.93;;;9.50;99.90;;;;;;6692315;88;20207;-76
2020/12/16 16:47:16;;;;;;;15.18;7.03;;;9.40;99.90;;;;;;6696755;88;20197;-78
2020/12/16 16:57:20;;;;;;;13.80;7.07;;;9.40;99.90;;;;;;6699163;88;20195;-78
2020/12/16 17:07:21;;;;;;;11.80;6.93;;;9.30;99.90;;;;;;6698036;88;20379;-76
2020/12/16 17:17:21;;;;;;;15.32;8.68;;;9.40;99.90;;;;;;6691118;88;20199;-77
2020/12/16 17:27:22;;;;;;;15.93;8.85;;;9.30;99.90;;;;;;6698639;88;20204;-77
2020/12/16 17:37:22;;;;;;;14.87;8.70;;;9.30;99.90;;;;;;6695705;88;20187;-76
2020/12/16 17:47:23;;;;;;;15.55;9.07;;;9.40;99.90;;;;;;6667276;88;20253;-75
2020/12/16 17:57:23;;;;;;;17.98;10.10;;;9.20;99.90;;;;;;6699690;88;20290;-80
2020/12/16 18:07:24;;;;;;;20.35;10.20;;;9.20;99.90;;;;;;6694166;88;20182;-76
2020/12/16 18:17:24;;;;;;;19.50;10.15;;;9.20;99.90;;;;;;6683240;88;20203;-76
2020/12/16 18:27:25;;;;;;;21.73;10.23;;;9.20;99.90;;;;;;6697093;88;20198;-76
2020/12/16 18:37:25;;;;;;;21.27;10.93;;;9.20;99.90;;;;;;6692834;88;20192;-77
2020/12/16 18:47:27;;;;;;;18.55;10.80;;;9.10;99.90;;;;;;6707606;88;20299;-75
2020/12/16 18:57:27;;;;;;;18.73;10.73;;;9.10;99.90;;;;;;6701120;88;20719;-77
2020/12/16 19:07:29;;;;;;;20.55;11.25;;;9.10;99.90;;;;;;6693717;88;20178;-76
2020/12/16 19:17:30;;;;;;;19.55;10.82;;;9.00;99.90;;;;;;6703879;88;20774;-77
2020/12/16 19:27:31;;;;;;;19.35;10.23;;;9.00;99.90;;;;;;6703988;88;20220;-79
2020/12/16 19:37:34;;;;;;;17.65;10.02;;;9.00;99.90;;;;;;6700963;88;20333;-77
2020/12/16 19:47:36;;;;;;;18.67;9.80;;;8.90;99.90;;;;;;6703581;88;20186;-78
2020/12/16 19:57:38;;;;;;;19.08;10.43;;;8.90;99.90;;;;;;6703369;88;20834;-77
2020/12/16 20:07:39;;;;;;;18.70;10.70;;;8.90;99.90;;;;;;6695304;88;20235;-77
2020/12/16 20:17:41;;;;;;;19.45;10.48;;;8.90;99.90;;;;;;6697040;88;20189;-76
2020/12/16 20:27:42;;;;;;;14.20;8.30;;;8.90;99.90;;;;;;6694225;88;20248;-76
2020/12/16 20:37:44;;;;;;;16.37;8.85;;;8.90;99.90;;;;;;6688839;88;20212;-77
2020/12/16 20:47:45;;;;;;;17.30;8.90;;;8.90;99.90;;;;;;6697212;88;20205;-76
2020/12/16 20:57:45;;;;;;;13.98;8.07;;;8.90;99.90;;;;;;6706141;88;20225;-76
2020/12/16 21:07:46;;;;;;;9.75;5.53;;;9.10;99.90;;;;;;6706141;88;20210;-77
2020/12/16 21:17:49;;;;;;;9.93;4.85;;;9.50;99.90;;;;;;6704445;88;20193;-78
2020/12/16 21:27:50;;;;;;;9.27;5.25;;;9.70;99.90;;;;;;6704866;88;20268;-75
2020/12/16 21:37:51;;;;;;;8.70;4.93;;;9.70;99.90;;;;;;6707186;88;20194;-78
2020/12/16 21:47:58;;;;;;;9.77;5.72;;;9.70;99.90;;;;;;6707733;88;20203;-77
2020/12/16 21:57:59;;;;;;;9.30;4.70;;;9.60;99.90;;;;;;6688506;88;20195;-77
2020/12/16 22:08:00;;;;;;;8.40;5.18;;;9.50;99.90;;;;;;6618580;89;20213;-77
2020/12/16 22:18:01;;;;;;;9.65;5.87;;;9.60;99.90;;;;;;6618766;89;20206;-77
2020/12/16 22:28:01;;;;;;;8.55;5.30;;;9.60;99.90;;;;;;6619449;89;20214;-78
2020/12/16 22:38:02;;;;;;;11.27;5.57;;;9.70;99.90;;;;;;6617125;89;20332;-77
2020/12/16 22:48:03;;;;;;;8.48;4.55;;;9.80;99.90;;;;;;6631676;88;20690;-76
2020/12/16 22:58:03;;;;;;;8.75;5.20;;;9.70;99.90;;;;;;6701175;88;20734;-76
2020/12/16 23:08:05;;;;;;;10.80;5.73;;;9.70;99.90;;;;;;6705432;88;20186;-74
2020/12/16 23:18:06;;;;;;;8.48;4.95;;;9.70;99.90;;;;;;6686446;88;20595;-78
2020/12/16 23:28:07;;;;;;;9.20;4.82;;;9.80;99.90;;;;;;6686811;88;20200;-77
2020/12/16 23:38:08;;;;;;;8.40;5.05;;;9.80;99.90;;;;;;6694048;88;20191;-78
2020/12/16 23:48:08;;;;;;;9.65;5.20;;;9.80;99.90;;;;;;6694001;88;20307;-78
2020/12/16 23:58:09;;;;;;;8.55;4.72;;;9.80;99.90;;;;;;6688015;89;20593;-77
